sensor_id;sensor_type;location;lat;lon;timestamp;pressure;altitude;pressure_sealevel;temperature;humidity
46448;BME280;32145;50.390;30.778;2023-10-13T00:01:26;99886.94;;;13.58;76.15
46448;BME280;32145;50.390;30.778;2023-10-13T00:04:22;99893.38;;;13.52;76.80
46448;BME280;32145;50.390;30.778;2023-10-13T00:07:18;99900.16;;;13.49;77.06
46448;BME280;32145;50.390;30.778;2023-10-13T00:10:15;99907.41;;;13.44;77.50
46448;BME280;32145;50.390;30.778;2023-10-13T00:13:11;99898.66;;;13.41;77.60
46448;BME280;32145;50.390;30.778;2023-10-13T00:16:07;99888.59;;;13.42;77.96
46448;BME280;32145;50.390;30.778;2023-10-13T00:19:05;99887.25;;;13.45;77.98
46448;BME280;32145;50.390;30.778;2023-10-13T00:22:01;99879.91;;;13.45;78.02
46448;BME280;32145;50.390;30.778;2023-10-13T00:24:58;99877.19;;;13.45;78.29
46448;BME280;32145;50.390;30.778;2023-10-13T00:27:54;99864.97;;;13.48;78.62
46448;BME280;32145;50.390;30.778;2023-10-13T00:30:49;99874.00;;;13.48;78.38
46448;BME280;32145;50.390;30.778;2023-10-13T00:33:43;99884.28;;;13.46;78.84
46448;BME280;32145;50.390;30.778;2023-10-13T00:36:41;99892.94;;;13.43;78.98
46448;BME280;32145;50.390;30.778;2023-10-13T00:39:38;99885.31;;;13.40;79.05
46448;BME280;32145;50.390;30.778;2023-10-13T00:42:34;99880.66;;;13.40;79.15
46448;BME280;32145;50.390;30.778;2023-10-13T00:45:29;99877.94;;;13.40;79.30
46448;BME280;32145;50.390;30.778;2023-10-13T00:48:28;99873.09;;;13.43;79.59
46448;BME280;32145;50.390;30.778;2023-10-13T00:51:22;99863.84;;;13.44;79.67
46448;BME280;32145;50.390;30.778;2023-10-13T00:54:19;99871.75;;;13.45;79.80
46448;BME280;32145;50.390;30.778;2023-10-13T00:57:13;99877.19;;;13.45;79.64
46448;BME280;32145;50.390;30.778;2023-10-13T01:00:10;99881.81;;;13.45;79.82
46448;BME280;32145;50.390;30.778;2023-10-13T01:03:06;99861.69;;;13.46;79.96
46448;BME280;32145;50.390;30.778;2023-10-13T01:06:02;99878.84;;;13.46;80.00
46448;BME280;32145;50.390;30.778;2023-10-13T01:09:01;99885.94;;;13.47;79.98
46448;BME280;32145;50.390;30.778;2023-10-13T01:11:59;99893.53;;;13.45;79.91
46448;BME280;32145;50.390;30.778;2023-10-13T01:14:56;99894.88;;;13.43;79.74
46448;BME280;32145;50.390;30.778;2023-10-13T01:17:50;99896.22;;;13.40;80.03
46448;BME280;32145;50.390;30.778;2023-10-13T01:20:45;99887.44;;;13.38;80.14
46448;BME280;32145;50.390;30.778;2023-10-13T01:23:40;99887.44;;;13.38;80.29
46448;BME280;32145;50.390;30.778;2023-10-13T01:26:35;99889.34;;;13.37;80.65
46448;BME280;32145;50.390;30.778;2023-10-13T01:29:29;99885.81;;;13.37;80.66
46448;BME280;32145;50.390;30.778;2023-10-13T01:32:24;99898.59;;;13.36;81.00
46448;BME280;32145;50.390;30.778;2023-10-13T01:35:20;99898.84;;;13.35;81.03
46448;BME280;32145;50.390;30.778;2023-10-13T01:38:16;99900.50;;;13.36;81.03
46448;BME280;32145;50.390;30.778;2023-10-13T01:41:14;99903.78;;;13.38;81.16
46448;BME280;32145;50.390;30.778;2023-10-13T01:44:11;99902.16;;;13.37;81.34
46448;BME280;32145;50.390;30.778;2023-10-13T01:47:07;99910.88;;;13.39;81.35
46448;BME280;32145;50.390;30.778;2023-10-13T01:50:04;99908.16;;;13.39;81.35
46448;BME280;32145;50.390;30.778;2023-10-13T01:53:01;99907.09;;;13.40;81.26
46448;BME280;32145;50.390;30.778;2023-10-13T01:55:57;99915.25;;;13.40;81.29
46448;BME280;32145;50.390;30.778;2023-10-13T01:58:55;99921.75;;;13.39;81.59
46448;BME280;32145;50.390;30.778;2023-10-13T02:01:51;99917.16;;;13.39;81.68
46448;BME280;32145;50.390;30.778;2023-10-13T02:04:47;99923.44;;;13.40;81.74
46448;BME280;32145;50.390;30.778;2023-10-13T02:07:43;99922.59;;;13.39;82.10
46448;BME280;32145;50.390;30.778;2023-10-13T02:10:40;99928.34;;;13.43;81.93
46448;BME280;32145;50.390;30.778;2023-10-13T02:13:36;99944.19;;;13.46;82.06
46448;BME280;32145;50.390;30.778;2023-10-13T02:16:32;99945.84;;;13.47;82.16
46448;BME280;32145;50.390;30.778;2023-10-13T02:19:26;99952.97;;;13.48;82.14
46448;BME280;32145;50.390;30.778;2023-10-13T02:22:21;99947.00;;;13.51;82.04
46448;BME280;32145;50.390;30.778;2023-10-13T02:25:15;99960.38;;;13.53;82.31
46448;BME280;32145;50.390;30.778;2023-10-13T02:28:12;99953.88;;;13.54;82.30
46448;BME280;32145;50.390;30.778;2023-10-13T02:31:08;99958.25;;;13.55;82.58
46448;BME280;32145;50.390;30.778;2023-10-13T02:34:07;99959.63;;;13.58;82.46
46448;BME280;32145;50.390;30.778;2023-10-13T02:37:03;99961.88;;;13.61;82.27
46448;BME280;32145;50.390;30.778;2023-10-13T02:39:59;99958.06;;;13.62;82.08
46448;BME280;32145;50.390;30.778;2023-10-13T02:42:55;99965.16;;;13.63;82.34
46448;BME280;32145;50.390;30.778;2023-10-13T02:45:52;99975.22;;;13.62;82.50
46448;BME280;32145;50.390;30.778;2023-10-13T02:48:48;99976.03;;;13.63;82.54
46448;BME280;32145;50.390;30.778;2023-10-13T02:51:46;99979.59;;;13.63;82.78
46448;BME280;32145;50.390;30.778;2023-10-13T02:54:43;99968.94;;;13.62;83.08
46448;BME280;32145;50.390;30.778;2023-10-13T02:57:39;99969.78;;;13.62;83.09
46448;BME280;32145;50.390;30.778;2023-10-13T03:00:35;99977.72;;;13.64;83.06
46448;BME280;32145;50.390;30.778;2023-10-13T03:03:31;99977.72;;;13.64;83.18
46448;BME280;32145;50.390;30.778;2023-10-13T03:06:28;99987.03;;;13.68;83.14
46448;BME280;32145;50.390;30.778;2023-10-13T03:09:23;99990.56;;;13.69;83.09
46448;BME280;32145;50.390;30.778;2023-10-13T03:12:18;99995.19;;;13.68;83.50
46448;BME280;32145;50.390;30.778;2023-10-13T03:15:12;99989.75;;;13.68;83.24
46448;BME280;32145;50.390;30.778;2023-10-13T03:18:07;99985.94;;;13.69;83.53
46448;BME280;32145;50.390;30.778;2023-10-13T03:21:02;99995.75;;;13.70;83.84
46448;BME280;32145;50.390;30.778;2023-10-13T03:23:57;99993.03;;;13.70;83.53
46448;BME280;32145;50.390;30.778;2023-10-13T03:26:54;99994.66;;;13.71;83.37
46448;BME280;32145;50.390;30.778;2023-10-13T03:29:51;99993.63;;;13.72;83.47
46448;BME280;32145;50.390;30.778;2023-10-13T03:32:45;99994.19;;;13.74;83.26
46448;BME280;32145;50.390;30.778;2023-10-13T03:35:40;99997.72;;;13.75;83.22
46448;BME280;32145;50.390;30.778;2023-10-13T03:38:34;99995.81;;;13.75;83.20
46448;BME280;32145;50.390;30.778;2023-10-13T03:41:28;100000.22;;;13.76;83.18
46448;BME280;32145;50.390;30.778;2023-10-13T03:44:24;100006.72;;;13.75;82.89
46448;BME280;32145;50.390;30.778;2023-10-13T03:47:18;99992.53;;;13.73;83.01
46448;BME280;32145;50.390;30.778;2023-10-13T03:50:12;100000.41;;;13.70;82.95
46448;BME280;32145;50.390;30.778;2023-10-13T03:53:07;100002.84;;;13.71;82.86
46448;BME280;32145;50.390;30.778;2023-10-13T03:56:04;100013.50;;;13.73;83.02
46448;BME280;32145;50.390;30.778;2023-10-13T03:59:01;100016.81;;;13.75;82.82
46448;BME280;32145;50.390;30.778;2023-10-13T04:01:58;100023.06;;;13.75;82.93
46448;BME280;32145;50.390;30.778;2023-10-13T04:04:55;100014.88;;;13.75;82.50
46448;BME280;32145;50.390;30.778;2023-10-13T04:07:51;100028.50;;;13.75;82.84
46448;BME280;32145;50.390;30.778;2023-10-13T04:10:47;100030.19;;;13.76;82.88
46448;BME280;32145;50.390;30.778;2023-10-13T04:13:43;100028.00;;;13.78;82.95
46448;BME280;32145;50.390;30.778;2023-10-13T04:16:40;100025.28;;;13.78;82.53
46448;BME280;32145;50.390;30.778;2023-10-13T04:19:37;100029.69;;;13.79;82.50
46448;BME280;32145;50.390;30.778;2023-10-13T04:22:34;100029.69;;;13.79;82.37
46448;BME280;32145;50.390;30.778;2023-10-13T04:25:30;100046.03;;;13.79;82.35
46448;BME280;32145;50.390;30.778;2023-10-13T04:28:27;100045.19;;;13.79;82.05
46448;BME280;32145;50.390;30.778;2023-10-13T04:31:23;100046.03;;;13.79;81.88
46448;BME280;32145;50.390;30.778;2023-10-13T04:34:19;100051.47;;;13.79;81.32
46448;BME280;32145;50.390;30.778;2023-10-13T04:37:15;100048.16;;;13.77;81.35
46448;BME280;32145;50.390;30.778;2023-10-13T04:40:10;100062.38;;;13.79;81.50
46448;BME280;32145;50.390;30.778;2023-10-13T04:43:04;100065.09;;;13.79;81.57
46448;BME280;32145;50.390;30.778;2023-10-13T04:45:59;100072.19;;;13.81;81.67
46448;BME280;32145;50.390;30.778;2023-10-13T04:48:55;100080.94;;;13.83;81.42
46448;BME280;32145;50.390;30.778;2023-10-13T04:51:52;100086.38;;;13.83;81.69
46448;BME280;32145;50.390;30.778;2023-10-13T04:54:49;100099.19;;;13.82;81.74
46448;BME280;32145;50.390;30.778;2023-10-13T04:57:46;100105.44;;;13.83;81.58
46448;BME280;32145;50.390;30.778;2023-10-13T05:00:42;100105.69;;;13.81;81.65
46448;BME280;32145;50.390;30.778;2023-10-13T05:03:32;100109.25;;;13.82;81.77
46448;BME280;32145;50.390;30.778;2023-10-13T05:06:27;100104.91;;;13.81;81.69
46448;BME280;32145;50.390;30.778;2023-10-13T05:09:21;100120.91;;;13.77;80.82
46448;BME280;32145;50.390;30.778;2023-10-13T05:12:17;100125.53;;;13.76;81.30
46448;BME280;32145;50.390;30.778;2023-10-13T05:15:11;100123.88;;;13.75;81.02
46448;BME280;32145;50.390;30.778;2023-10-13T05:18:05;100128.03;;;13.78;81.32
46448;BME280;32145;50.390;30.778;2023-10-13T05:21:00;100127.25;;;13.83;81.40
46448;BME280;32145;50.390;30.778;2023-10-13T05:23:54;100125.13;;;13.85;81.48
46448;BME280;32145;50.390;30.778;2023-10-13T05:26:48;100119.66;;;13.85;80.88
46448;BME280;32145;50.390;30.778;2023-10-13T05:29:47;100126.75;;;13.86;81.36
46448;BME280;32145;50.390;30.778;2023-10-13T05:32:43;100105.56;;;13.88;81.20
46448;BME280;32145;50.390;30.778;2023-10-13T05:35:40;100129.56;;;13.91;81.23
46448;BME280;32145;50.390;30.778;2023-10-13T05:38:36;100144.69;;;13.99;81.01
46448;BME280;32145;50.390;30.778;2023-10-13T05:41:33;100141.59;;;14.12;81.01
46448;BME280;32145;50.390;30.778;2023-10-13T05:44:29;100145.38;;;14.28;80.59
46448;BME280;32145;50.390;30.778;2023-10-13T05:47:27;100150.38;;;14.37;80.26
46448;BME280;32145;50.390;30.778;2023-10-13T05:50:23;100154.00;;;14.42;79.90
46448;BME280;32145;50.390;30.778;2023-10-13T05:53:19;100155.16;;;14.47;79.37
46448;BME280;32145;50.390;30.778;2023-10-13T05:56:17;100161.34;;;14.42;79.17
46448;BME280;32145;50.390;30.778;2023-10-13T05:59:12;100170.03;;;14.39;79.42
46448;BME280;32145;50.390;30.778;2023-10-13T06:02:08;100178.06;;;14.46;79.48
46448;BME280;32145;50.390;30.778;2023-10-13T06:05:07;100178.31;;;14.44;79.22
46448;BME280;32145;50.390;30.778;2023-10-13T06:08:04;100180.53;;;14.47;79.32
46448;BME280;32145;50.390;30.778;2023-10-13T06:11:03;100174.53;;;14.50;78.75
46448;BME280;32145;50.390;30.778;2023-10-13T06:14:00;100185.28;;;14.57;78.87
46448;BME280;32145;50.390;30.778;2023-10-13T06:16:56;100186.44;;;14.61;78.99
46448;BME280;32145;50.390;30.778;2023-10-13T06:19:52;100191.25;;;14.54;78.61
46448;BME280;32145;50.390;30.778;2023-10-13T06:22:50;100192.59;;;14.51;78.46
46448;BME280;32145;50.390;30.778;2023-10-13T06:25:50;100181.69;;;14.51;78.46
46448;BME280;32145;50.390;30.778;2023-10-13T06:28:46;100177.88;;;14.52;78.43
46448;BME280;32145;50.390;30.778;2023-10-13T06:31:43;100182.28;;;14.59;78.05
46448;BME280;32145;50.390;30.778;2023-10-13T06:34:39;100180.84;;;14.73;77.89
46448;BME280;32145;50.390;30.778;2023-10-13T06:37:35;100187.53;;;14.82;77.15
46448;BME280;32145;50.390;30.778;2023-10-13T06:40:33;100199.72;;;14.97;77.01
46448;BME280;32145;50.390;30.778;2023-10-13T06:43:29;100206.31;;;15.01;76.79
46448;BME280;32145;50.390;30.778;2023-10-13T06:46:27;100216.94;;;14.98;76.55
46448;BME280;32145;50.390;30.778;2023-10-13T06:49:23;100225.72;;;14.82;76.39
46448;BME280;32145;50.390;30.778;2023-10-13T06:52:19;100217.66;;;14.71;76.29
46448;BME280;32145;50.390;30.778;2023-10-13T06:55:16;100231.28;;;14.71;76.71
46448;BME280;32145;50.390;30.778;2023-10-13T06:58:14;100224.59;;;14.78;76.66
46448;BME280;32145;50.390;30.778;2023-10-13T07:01:10;100221.25;;;14.93;76.28
46448;BME280;32145;50.390;30.778;2023-10-13T07:04:07;100232.47;;;14.97;75.26
46448;BME280;32145;50.390;30.778;2023-10-13T07:07:04;100235.34;;;15.07;75.15
46448;BME280;32145;50.390;30.778;2023-10-13T07:09:58;100231.53;;;15.08;74.69
46448;BME280;32145;50.390;30.778;2023-10-13T07:12:52;100237.66;;;15.21;74.27
46448;BME280;32145;50.390;30.778;2023-10-13T07:15:48;100242.63;;;15.24;74.13
46448;BME280;32145;50.390;30.778;2023-10-13T07:18:42;100239.72;;;15.08;73.85
46448;BME280;32145;50.390;30.778;2023-10-13T07:21:37;100250.44;;;14.93;74.03
46448;BME280;32145;50.390;30.778;2023-10-13T07:24:31;100259.72;;;14.75;74.29
46448;BME280;32145;50.390;30.778;2023-10-13T07:27:25;100254.47;;;14.68;74.73
46448;BME280;32145;50.390;30.778;2023-10-13T07:30:20;100250.59;;;14.64;74.52
46448;BME280;32145;50.390;30.778;2023-10-13T07:33:15;100257.53;;;14.54;74.84
46448;BME280;32145;50.390;30.778;2023-10-13T07:36:10;100261.34;;;14.53;74.73
46448;BME280;32145;50.390;30.778;2023-10-13T07:39:04;100259.91;;;14.68;74.95
46448;BME280;32145;50.390;30.778;2023-10-13T07:41:59;100259.78;;;14.97;74.50
46448;BME280;32145;50.390;30.778;2023-10-13T07:44:53;100269.34;;;15.22;73.71
46448;BME280;32145;50.390;30.778;2023-10-13T07:47:48;100272.22;;;15.32;73.53
46448;BME280;32145;50.390;30.778;2023-10-13T07:50:43;100263.97;;;15.27;72.71
46448;BME280;32145;50.390;30.778;2023-10-13T07:53:39;100265.22;;;15.19;72.82
46448;BME280;32145;50.390;30.778;2023-10-13T07:56:33;100257.28;;;15.18;72.44
46448;BME280;32145;50.390;30.778;2023-10-13T07:59:28;100257.81;;;15.15;72.08
46448;BME280;32145;50.390;30.778;2023-10-13T08:02:22;100262.19;;;15.16;71.88
46448;BME280;32145;50.390;30.778;2023-10-13T08:05:16;100278.25;;;15.12;71.69
46448;BME280;32145;50.390;30.778;2023-10-13T08:08:12;100274.22;;;15.15;71.86
46448;BME280;32145;50.390;30.778;2023-10-13T08:11:08;100282.91;;;15.12;72.14
46448;BME280;32145;50.390;30.778;2023-10-13T08:14:04;100290.13;;;15.23;71.47
46448;BME280;32145;50.390;30.778;2023-10-13T08:17:01;100278.75;;;15.31;70.90
46448;BME280;32145;50.390;30.778;2023-10-13T08:19:57;100276.75;;;15.49;70.71
46448;BME280;32145;50.390;30.778;2023-10-13T08:22:53;100275.91;;;15.71;69.50
46448;BME280;32145;50.390;30.778;2023-10-13T08:25:51;100283.16;;;15.88;68.48
46448;BME280;32145;50.390;30.778;2023-10-13T08:28:47;100284.41;;;16.02;67.71
46448;BME280;32145;50.390;30.778;2023-10-13T08:31:44;100296.41;;;16.01;66.98
46448;BME280;32145;50.390;30.778;2023-10-13T08:34:40;100291.63;;;15.86;66.91
46448;BME280;32145;50.390;30.778;2023-10-13T08:37:36;100291.75;;;15.74;66.88
46448;BME280;32145;50.390;30.778;2023-10-13T08:40:33;100298.28;;;15.68;66.78
46448;BME280;32145;50.390;30.778;2023-10-13T08:43:32;100305.84;;;15.61;66.81
46448;BME280;32145;50.390;30.778;2023-10-13T08:46:30;100312.94;;;15.62;66.94
46448;BME280;32145;50.390;30.778;2023-10-13T08:49:27;100302.19;;;15.50;67.17
46448;BME280;32145;50.390;30.778;2023-10-13T08:52:22;100303.28;;;15.49;67.24
46448;BME280;32145;50.390;30.778;2023-10-13T08:55:16;100316.84;;;15.43;67.41
46448;BME280;32145;50.390;30.778;2023-10-13T08:58:12;100303.56;;;15.52;66.97
46448;BME280;32145;50.390;30.778;2023-10-13T09:01:07;100314.28;;;15.59;66.79
46448;BME280;32145;50.390;30.778;2023-10-13T09:04:03;100320.19;;;15.73;66.25
46448;BME280;32145;50.390;30.778;2023-10-13T09:07:00;100313.91;;;16.00;65.76
46448;BME280;32145;50.390;30.778;2023-10-13T09:09:55;100315.31;;;16.35;65.06
46448;BME280;32145;50.390;30.778;2023-10-13T09:12:54;100321.25;;;16.60;64.06
46448;BME280;32145;50.390;30.778;2023-10-13T09:15:50;100321.66;;;16.84;63.35
46448;BME280;32145;50.390;30.778;2023-10-13T09:18:46;100326.13;;;17.01;62.82
46448;BME280;32145;50.390;30.778;2023-10-13T09:21:42;100322.38;;;17.12;61.83
46448;BME280;32145;50.390;30.778;2023-10-13T09:24:38;100322.38;;;17.12;61.22
46448;BME280;32145;50.390;30.778;2023-10-13T09:27:35;100324.13;;;16.86;60.93
46448;BME280;32145;50.390;30.778;2023-10-13T09:30:31;100327.59;;;16.71;61.70
46448;BME280;32145;50.390;30.778;2023-10-13T09:33:28;100335.25;;;16.69;61.97
46448;BME280;32145;50.390;30.778;2023-10-13T09:36:26;100334.13;;;16.65;61.92
46448;BME280;32145;50.390;30.778;2023-10-13T09:39:25;100333.47;;;16.47;61.47
46448;BME280;32145;50.390;30.778;2023-10-13T09:42:21;100323.00;;;16.39;61.59
46448;BME280;32145;50.390;30.778;2023-10-13T09:45:17;100315.75;;;16.22;61.10
46448;BME280;32145;50.390;30.778;2023-10-13T09:48:14;100329.97;;;16.19;61.11
46448;BME280;32145;50.390;30.778;2023-10-13T09:51:12;100317.31;;;16.13;61.22
46448;BME280;32145;50.390;30.778;2023-10-13T09:54:16;100320.69;;;16.25;61.52
46448;BME280;32145;50.390;30.778;2023-10-13T09:57:15;100323.25;;;16.37;61.46
46448;BME280;32145;50.390;30.778;2023-10-13T10:00:17;100315.97;;;16.53;60.95
46448;BME280;32145;50.390;30.778;2023-10-13T10:03:08;100315.00;;;16.70;60.79
46448;BME280;32145;50.390;30.778;2023-10-13T10:06:03;100311.53;;;16.85;59.91
46448;BME280;32145;50.390;30.778;2023-10-13T10:09:06;100320.09;;;16.99;59.50
46448;BME280;32145;50.390;30.778;2023-10-13T10:12:21;100308.28;;;16.93;59.05
46448;BME280;32145;50.390;30.778;2023-10-13T10:15:26;100315.81;;;16.70;58.91
46448;BME280;32145;50.390;30.778;2023-10-13T10:18:21;100310.72;;;16.41;58.72
46448;BME280;32145;50.390;30.778;2023-10-13T10:21:15;100304.81;;;16.22;59.27
46448;BME280;32145;50.390;30.778;2023-10-13T10:24:16;100299.91;;;16.24;59.61
46448;BME280;32145;50.390;30.778;2023-10-13T10:27:12;100301.97;;;16.44;59.31
46448;BME280;32145;50.390;30.778;2023-10-13T10:30:11;100303.47;;;16.62;58.40
46448;BME280;32145;50.390;30.778;2023-10-13T10:33:06;100306.22;;;16.62;57.49
46448;BME280;32145;50.390;30.778;2023-10-13T10:36:00;100309.38;;;16.49;58.19
46448;BME280;32145;50.390;30.778;2023-10-13T10:38:56;100307.22;;;16.51;58.43
46448;BME280;32145;50.390;30.778;2023-10-13T10:41:50;100302.13;;;16.70;58.49
46448;BME280;32145;50.390;30.778;2023-10-13T10:44:45;100307.41;;;16.82;58.04
46448;BME280;32145;50.390;30.778;2023-10-13T10:47:48;100312.94;;;16.93;57.45
46448;BME280;32145;50.390;30.778;2023-10-13T10:50:42;100308.03;;;17.00;57.30
46448;BME280;32145;50.390;30.778;2023-10-13T10:53:36;100304.06;;;17.18;57.21
46448;BME280;32145;50.390;30.778;2023-10-13T10:56:33;100298.28;;;17.15;56.61
46448;BME280;32145;50.390;30.778;2023-10-13T10:59:34;100300.19;;;17.14;56.67
46448;BME280;32145;50.390;30.778;2023-10-13T11:02:30;100292.50;;;17.11;56.34
46448;BME280;32145;50.390;30.778;2023-10-13T11:05:28;100292.81;;;17.15;56.15
46448;BME280;32145;50.390;30.778;2023-10-13T11:08:24;100290.94;;;17.20;56.34
46448;BME280;32145;50.390;30.778;2023-10-13T11:11:30;100293.41;;;17.22;55.80
46448;BME280;32145;50.390;30.778;2023-10-13T11:14:27;100305.13;;;17.12;56.09
46448;BME280;32145;50.390;30.778;2023-10-13T11:17:24;100308.41;;;17.09;56.07
46448;BME280;32145;50.390;30.778;2023-10-13T11:20:21;100306.44;;;17.04;55.88
46448;BME280;32145;50.390;30.778;2023-10-13T11:23:18;100289.44;;;17.02;54.83
46448;BME280;32145;50.390;30.778;2023-10-13T11:26:15;100304.31;;;17.17;55.18
46448;BME280;32145;50.390;30.778;2023-10-13T11:29:11;100299.94;;;17.16;55.23
46448;BME280;32145;50.390;30.778;2023-10-13T11:32:07;100307.63;;;17.24;55.48
46448;BME280;32145;50.390;30.778;2023-10-13T11:35:04;100306.59;;;17.41;55.19
46448;BME280;32145;50.390;30.778;2023-10-13T11:38:00;100303.06;;;17.50;53.92
46448;BME280;32145;50.390;30.778;2023-10-13T11:40:59;100303.91;;;17.56;53.79
46448;BME280;32145;50.390;30.778;2023-10-13T11:43:56;100305.31;;;17.64;53.63
46448;BME280;32145;50.390;30.778;2023-10-13T11:46:52;100305.03;;;17.71;52.79
46448;BME280;32145;50.390;30.778;2023-10-13T11:49:50;100304.72;;;17.57;51.60
46448;BME280;32145;50.390;30.778;2023-10-13T11:52:46;100304.44;;;17.53;51.60
46448;BME280;32145;50.390;30.778;2023-10-13T11:55:42;100300.34;;;17.56;51.01
46448;BME280;32145;50.390;30.778;2023-10-13T11:58:38;100301.47;;;17.70;50.97
46448;BME280;32145;50.390;30.778;2023-10-13T12:01:33;100300.97;;;17.84;50.78
46448;BME280;32145;50.390;30.778;2023-10-13T12:04:27;100295.75;;;17.82;49.86
46448;BME280;32145;50.390;30.778;2023-10-13T12:07:21;100289.16;;;17.83;49.90
46448;BME280;32145;50.390;30.778;2023-10-13T12:10:16;100284.25;;;18.01;49.72
46448;BME280;32145;50.390;30.778;2023-10-13T12:13:10;100293.88;;;18.09;49.04
46448;BME280;32145;50.390;30.778;2023-10-13T12:16:05;100288.09;;;18.26;49.14
46448;BME280;32145;50.390;30.778;2023-10-13T12:19:00;100294.94;;;18.49;48.90
46448;BME280;32145;50.390;30.778;2023-10-13T12:21:54;100286.72;;;18.54;48.20
46448;BME280;32145;50.390;30.778;2023-10-13T12:24:49;100288.03;;;18.67;48.41
46448;BME280;32145;50.390;30.778;2023-10-13T12:27:45;100285.56;;;18.76;48.10
46448;BME280;32145;50.390;30.778;2023-10-13T12:30:41;100279.22;;;18.76;47.43
46448;BME280;32145;50.390;30.778;2023-10-13T12:33:39;100286.38;;;18.72;47.61
46448;BME280;32145;50.390;30.778;2023-10-13T12:36:35;100291.91;;;18.56;46.82
46448;BME280;32145;50.390;30.778;2023-10-13T12:39:31;100288.09;;;18.47;47.02
46448;BME280;32145;50.390;30.778;2023-10-13T12:42:28;100283.38;;;18.58;47.42
46448;BME280;32145;50.390;30.778;2023-10-13T12:45:24;100280.91;;;18.66;47.05
46448;BME280;32145;50.390;30.778;2023-10-13T12:48:20;100286.94;;;18.63;46.63
46448;BME280;32145;50.390;30.778;2023-10-13T12:51:19;100296.84;;;18.64;46.56
46448;BME280;32145;50.390;30.778;2023-10-13T12:54:15;100302.88;;;18.56;46.19
46448;BME280;32145;50.390;30.778;2023-10-13T12:57:11;100302.88;;;18.56;46.36
46448;BME280;32145;50.390;30.778;2023-10-13T13:00:07;100296.59;;;18.55;46.37
46448;BME280;32145;50.390;30.778;2023-10-13T13:03:02;100292.19;;;18.60;46.63
46448;BME280;32145;50.390;30.778;2023-10-13T13:05:56;100300.38;;;18.70;46.72
46448;BME280;32145;50.390;30.778;2023-10-13T13:08:52;100300.66;;;18.79;46.36
46448;BME280;32145;50.390;30.778;2023-10-13T13:11:48;100304.19;;;18.85;46.51
46448;BME280;32145;50.390;30.778;2023-10-13T13:14:45;100308.06;;;18.84;46.20
46448;BME280;32145;50.390;30.778;2023-10-13T13:17:41;100311.34;;;18.91;46.10
46448;BME280;32145;50.390;30.778;2023-10-13T13:20:38;100313.25;;;18.90;45.68
46448;BME280;32145;50.390;30.778;2023-10-13T13:23:34;100311.09;;;18.72;45.32
46448;BME280;32145;50.390;30.778;2023-10-13T13:26:31;100305.63;;;18.61;45.54
46448;BME280;32145;50.390;30.778;2023-10-13T13:29:28;100305.63;;;18.61;45.74
46448;BME280;32145;50.390;30.778;2023-10-13T13:32:25;100297.69;;;18.44;45.94
46448;BME280;32145;50.390;30.778;2023-10-13T13:35:21;100302.91;;;18.51;46.48
46448;BME280;32145;50.390;30.778;2023-10-13T13:38:17;100302.91;;;18.61;46.36
46448;BME280;32145;50.390;30.778;2023-10-13T13:41:14;100305.94;;;18.54;45.64
46448;BME280;32145;50.390;30.778;2023-10-13T13:44:11;100297.44;;;18.46;45.52
46448;BME280;32145;50.390;30.778;2023-10-13T13:47:08;100304.56;;;18.47;45.61
46448;BME280;32145;50.390;30.778;2023-10-13T13:50:04;100310.03;;;18.47;45.15
46448;BME280;32145;50.390;30.778;2023-10-13T13:52:58;100307.03;;;18.48;45.18
46448;BME280;32145;50.390;30.778;2023-10-13T13:55:53;100302.91;;;18.51;45.28
46448;BME280;32145;50.390;30.778;2023-10-13T13:58:48;100306.22;;;18.37;45.41
46448;BME280;32145;50.390;30.778;2023-10-13T14:01:48;100298.81;;;18.27;45.83
46448;BME280;32145;50.390;30.778;2023-10-13T14:04:42;100305.13;;;18.18;46.20
46448;BME280;32145;50.390;30.778;2023-10-13T14:07:36;100310.06;;;18.15;46.43
46448;BME280;32145;50.390;30.778;2023-10-13T14:10:31;100314.44;;;18.16;46.60
46448;BME280;32145;50.390;30.778;2023-10-13T14:13:25;100322.13;;;18.14;47.11
46448;BME280;32145;50.390;30.778;2023-10-13T14:16:19;100315.22;;;18.07;47.37
46448;BME280;32145;50.390;30.778;2023-10-13T14:19:15;100330.84;;;17.96;47.76
46448;BME280;32145;50.390;30.778;2023-10-13T14:22:10;100320.97;;;17.74;47.96
46448;BME280;32145;50.390;30.778;2023-10-13T14:25:05;100329.66;;;17.50;48.58
46448;BME280;32145;50.390;30.778;2023-10-13T14:27:59;100332.03;;;17.25;49.16
46448;BME280;32145;50.390;30.778;2023-10-13T14:30:53;100340.69;;;17.07;49.83
46448;BME280;32145;50.390;30.778;2023-10-13T14:33:47;100339.19;;;16.88;50.58
46448;BME280;32145;50.390;30.778;2023-10-13T14:36:43;100334.44;;;16.68;51.35
46448;BME280;32145;50.390;30.778;2023-10-13T14:39:39;100333.19;;;16.48;51.95
46448;BME280;32145;50.390;30.778;2023-10-13T14:42:36;100336.28;;;16.25;53.23
46448;BME280;32145;50.390;30.778;2023-10-13T14:45:35;100335.28;;;16.03;54.21
46448;BME280;32145;50.390;30.778;2023-10-13T14:48:31;100332.56;;;15.81;54.53
46448;BME280;32145;50.390;30.778;2023-10-13T14:51:28;100338.38;;;15.62;55.01
46448;BME280;32145;50.390;30.778;2023-10-13T14:54:25;100345.00;;;15.44;56.08
46448;BME280;32145;50.390;30.778;2023-10-13T14:57:19;100344.22;;;15.26;57.01
46448;BME280;32145;50.390;30.778;2023-10-13T15:00:14;100349.44;;;15.05;57.94
46448;BME280;32145;50.390;30.778;2023-10-13T15:03:10;100353.84;;;14.89;58.72
46448;BME280;32145;50.390;30.778;2023-10-13T15:06:06;100350.03;;;14.73;59.25
46448;BME280;32145;50.390;30.778;2023-10-13T15:09:03;100348.72;;;14.59;59.99
46448;BME280;32145;50.390;30.778;2023-10-13T15:12:01;100343.34;;;14.47;60.66